Time;durP1;ratioP1;P1;durP2;ratioP2;P2;SDS_P1;SDS_P2;PMS_P1;PMS_P2;Temp;Humidity;BMP_temperature;BMP_pressure;BME280_temperature;BME280_humidity;BME280_pressure;Samples;Min_cycle;Max_cycle;Signal;HPM_P1;HPM_P2
2021/09/25 00:01:00;;;;;;;6.18;4.53;;;14.70;99.90;;;15.88;100.00;100553.72;6014045;23;20007;-86
2021/09/25 00:03:26;;;;;;;12.40;5.05;;;14.60;99.90;;;15.92;100.00;100546.09;6014914;23;20063;-84
2021/09/25 00:05:52;;;;;;;8.77;4.82;;;14.60;99.90;;;15.88;100.00;100544.47;6038083;23;20080;-88
2021/09/25 00:08:23;;;;;;;7.75;4.72;;;14.70;99.90;;;15.89;100.00;100552.53;6015242;23;20004;-87
2021/09/25 00:10:49;;;;;;;7.50;5.35;;;14.60;99.90;;;15.89;100.00;100540.47;6013962;23;20007;-85
2021/09/25 00:13:16;;;;;;;9.98;4.85;;;14.70;99.90;;;15.84;100.00;100541.63;6038344;23;20019;-87
2021/09/25 00:15:42;;;;;;;8.80;5.38;;;14.70;99.90;;;15.83;100.00;100548.47;6037930;23;20461;-89
2021/09/25 00:18:08;;;;;;;9.45;5.10;;;14.70;99.90;;;15.85;100.00;100550.91;6039145;23;20035;-86
2021/09/25 00:20:37;;;;;;;7.47;5.55;;;14.70;99.90;;;15.87;100.00;100546.47;6039643;23;20447;-86
2021/09/25 00:23:07;;;;;;;7.85;5.18;;;14.70;99.90;;;15.93;100.00;100549.69;6016270;23;20015;-87
2021/09/25 00:25:33;;;;;;;8.52;5.00;;;14.80;99.90;;;15.95;100.00;100550.13;6039533;23;20014;-87
2021/09/25 00:28:00;;;;;;;7.85;5.35;;;14.70;99.90;;;15.90;100.00;100547.69;6041211;23;20012;-85
2021/09/25 00:30:27;;;;;;;11.20;5.65;;;14.80;99.90;;;15.86;100.00;100544.06;6046577;23;20020;-88
2021/09/25 00:32:56;;;;;;;9.82;5.03;;;14.80;99.90;;;15.90;100.00;100534.41;6047020;23;20008;-86
2021/09/25 00:35:22;;;;;;;8.02;5.60;;;14.80;99.90;;;15.87;100.00;100545.66;6046068;23;20012;-84
2021/09/25 00:37:51;;;;;;;10.55;5.47;;;14.80;99.90;;;15.85;100.00;100545.25;6023151;23;20008;-87
2021/09/25 00:40:18;;;;;;;7.85;5.05;;;14.80;99.90;;;15.96;100.00;100543.31;6044708;23;20011;-89
2021/09/25 00:42:45;;;;;;;6.93;4.80;;;14.70;99.90;;;15.83;100.00;100542.84;6042406;23;20012;-85
2021/09/25 00:45:12;;;;;;;9.95;5.18;;;14.70;99.90;;;15.79;100.00;100545.66;6045340;23;20015;-88
2021/09/25 00:47:39;;;;;;;9.80;5.75;;;14.70;99.90;;;15.83;100.00;100540.00;6041220;23;20038;-87
2021/09/25 00:50:08;;;;;;;8.93;5.68;;;14.60;99.90;;;15.70;100.00;100533.94;6015365;23;20342;-88
2021/09/25 00:52:34;;;;;;;10.32;5.65;;;14.60;99.90;;;15.65;100.00;100539.94;6037932;23;20011;-87
2021/09/25 00:55:00;;;;;;;8.60;5.57;;;14.60;99.90;;;15.67;100.00;100545.16;6038206;23;20012;-86
2021/09/25 00:57:26;;;;;;;8.57;5.30;;;14.50;99.90;;;15.59;100.00;100546.34;6038210;23;20008;-87
2021/09/25 00:59:52;;;;;;;11.88;5.68;;;14.50;99.90;;;15.56;100.00;100536.69;6015242;23;20008;-85
2021/09/25 01:02:19;;;;;;;10.85;5.90;;;14.40;99.90;;;15.49;100.00;100541.47;6015550;23;20012;-85
2021/09/25 01:04:50;;;;;;;8.80;5.15;;;14.30;99.90;;;15.44;100.00;100545.44;6016639;23;20098;-87
2021/09/25 01:07:16;;;;;;;8.88;5.18;;;14.30;99.90;;;15.39;100.00;100551.44;6016635;23;20042;-87
2021/09/25 01:09:43;;;;;;;10.02;5.97;;;14.30;99.90;;;15.37;100.00;100558.66;6014912;23;20015;-84
2021/09/25 01:12:10;;;;;;;9.95;6.32;;;14.30;99.90;;;15.29;100.00;100555.81;6014948;23;20012;-86
2021/09/25 01:14:36;;;;;;;7.68;5.90;;;14.20;99.90;;;15.24;100.00;100556.19;5991404;23;20036;-90
2021/09/25 01:17:12;;;;;;;12.52;6.32;;;14.20;99.90;;;15.23;100.00;100553.75;6016145;23;20415;-87
2021/09/25 01:19:42;;;;;;;10.40;5.72;;;14.10;99.90;;;15.23;100.00;100562.19;5991882;23;20008;-86
2021/09/25 01:22:10;;;;;;;9.60;6.03;;;14.10;99.90;;;15.22;100.00;100561.38;5991803;23;20046;-89
2021/09/25 01:24:39;;;;;;;10.50;5.50;;;14.10;99.90;;;15.18;100.00;100549.31;6015169;23;20402;-87
2021/09/25 01:27:06;;;;;;;9.43;5.50;;;14.10;99.90;;;15.20;100.00;100554.53;6016944;23;20382;-84
2021/09/25 01:29:33;;;;;;;11.50;5.88;;;14.00;99.90;;;15.20;100.00;100558.16;6015137;23;20019;-87
2021/09/25 01:32:04;;;;;;;10.98;5.88;;;14.00;99.90;;;15.17;100.00;100544.06;6017657;23;20016;-86
2021/09/25 01:34:30;;;;;;;9.35;5.47;;;14.00;99.90;;;15.15;100.00;100554.91;5992497;23;20059;-86
2021/09/25 01:36:56;;;;;;;14.77;6.20;;;14.00;99.90;;;15.12;100.00;100553.66;6016052;23;20473;-89
2021/09/25 01:39:22;;;;;;;9.93;6.10;;;14.00;99.90;;;15.10;100.00;100544.81;6016027;23;20338;-86
2021/09/25 01:41:49;;;;;;;11.45;6.20;;;14.00;99.90;;;15.04;100.00;100543.56;6016095;23;20010;-88
2021/09/25 01:44:15;;;;;;;8.82;5.88;;;13.90;99.90;;;15.06;100.00;100555.22;6015680;23;20016;-88
2021/09/25 01:46:41;;;;;;;10.30;6.05;;;13.90;99.90;;;15.06;100.00;100552.41;5992933;23;20004;-89
2021/09/25 01:49:08;;;;;;;12.25;6.10;;;13.90;99.90;;;15.04;100.00;100556.81;6015950;23;20147;-87
2021/09/25 01:51:34;;;;;;;12.00;6.65;;;14.00;99.90;;;15.00;100.00;100551.16;6017051;23;20012;-86
2021/09/25 01:53:59;;;;;;;8.43;5.40;;;14.00;99.90;;;15.01;100.00;100546.34;6016760;23;20023;-86
2021/09/25 01:56:26;;;;;;;8.77;5.60;;;13.90;99.90;;;14.98;100.00;100541.50;6016571;23;20183;-88
2021/09/25 02:03:55;;;;;;;11.77;6.80;;;13.90;99.90;;;14.86;100.00;100539.84;5982252;24;20028;-89
2021/09/25 02:06:22;;;;;;;11.30;7.10;;;13.90;99.90;;;14.90;100.00;100537.06;5982903;24;20027;-89
2021/09/25 02:08:48;;;;;;;10.55;6.28;;;13.90;99.90;;;14.91;100.00;100539.47;5982432;24;20091;-89
2021/09/25 02:11:13;;;;;;;12.25;6.40;;;14.00;99.90;;;14.87;100.00;100538.63;5959519;24;20442;-90
2021/09/25 02:13:40;;;;;;;11.85;6.00;;;13.90;99.90;;;14.89;100.00;100538.25;5959162;24;20351;-90
2021/09/25 02:16:06;;;;;;;12.05;5.68;;;13.80;99.90;;;14.81;100.00;100537.38;5958677;24;20012;-88
2021/09/25 02:18:32;;;;;;;10.90;6.30;;;13.80;99.90;;;14.81;100.00;100539.38;5958992;24;20008;-90
2021/09/25 02:20:58;;;;;;;11.32;6.45;;;13.90;99.90;;;14.81;100.00;100534.56;5959261;24;20213;-90
2021/09/25 02:23:24;;;;;;;11.15;6.63;;;13.90;99.90;;;14.84;100.00;100533.78;5959516;24;20016;-91
2021/09/25 02:25:51;;;;;;;10.82;6.63;;;13.90;99.90;;;14.92;100.00;100538.28;5959834;24;20039;-90
2021/09/25 02:28:18;;;;;;;10.90;6.18;;;13.90;99.90;;;14.97;100.00;100537.06;5959430;24;20038;-89
2021/09/25 02:30:45;;;;;;;11.57;6.50;;;13.90;99.90;;;14.96;100.00;100527.84;5960453;24;20339;-89
2021/09/25 02:33:13;;;;;;;13.23;6.70;;;14.00;99.90;;;15.00;100.00;100522.22;5959905;24;20016;-89
2021/09/25 02:35:40;;;;;;;10.77;6.30;;;13.90;99.90;;;14.96;100.00;100518.63;5959036;24;20004;-90
2021/09/25 02:38:08;;;;;;;13.65;6.57;;;14.00;99.90;;;14.98;100.00;100522.63;5984728;24;20004;-90
2021/09/25 02:40:35;;;;;;;12.50;6.65;;;14.00;99.90;;;15.08;100.00;100530.34;5959112;24;20016;-89
2021/09/25 02:43:01;;;;;;;12.20;6.97;;;14.00;99.90;;;15.06;100.00;100529.09;5962024;24;20023;-88
2021/09/25 02:45:27;;;;;;;12.98;6.63;;;14.10;99.90;;;15.04;100.00;100521.06;5973019;24;20012;-89
2021/09/25 02:47:53;;;;;;;10.50;6.55;;;14.10;99.90;;;15.14;100.00;100530.78;5967038;24;20023;-90
2021/09/25 02:50:19;;;;;;;12.27;6.60;;;14.10;99.90;;;15.19;100.00;100527.59;5960115;24;20012;-91
2021/09/25 02:52:46;;;;;;;11.73;6.85;;;14.10;99.90;;;15.26;100.00;100524.81;5959899;24;20016;-90
2021/09/25 02:55:14;;;;;;;10.23;6.28;;;14.20;99.90;;;15.31;100.00;100516.81;5959058;24;20012;-89
2021/09/25 02:57:41;;;;;;;10.98;5.78;;;14.30;99.90;;;15.30;100.00;100531.28;5958899;24;20039;-91
2021/09/25 03:00:17;;;;;;;9.30;5.93;;;14.20;99.90;;;15.39;100.00;100534.56;5959395;24;20015;-91
2021/09/25 03:02:45;;;;;;;10.35;6.80;;;14.20;99.90;;;15.44;100.00;100531.38;5959233;24;20012;-90
2021/09/25 03:05:11;;;;;;;8.88;5.90;;;14.30;99.90;;;15.48;100.00;100537.03;5982739;23;20124;-90
2021/09/25 03:07:38;;;;;;;13.70;6.90;;;14.30;99.90;;;15.37;100.00;100528.53;5959247;24;20016;-90
2021/09/25 03:10:07;;;;;;;8.65;5.60;;;14.30;99.90;;;15.49;100.00;100527.41;5959827;24;20355;-90
2021/09/25 03:12:34;;;;;;;10.75;6.43;;;14.20;99.90;;;15.44;100.00;100528.56;5960700;24;20038;-89
2021/09/25 03:15:04;;;;;;;10.23;6.28;;;14.30;99.90;;;15.48;100.00;100522.97;5961096;24;20016;-89
2021/09/25 03:17:30;;;;;;;12.68;6.60;;;14.30;99.90;;;15.44;100.00;100525.75;5960649;24;20019;-88
2021/09/25 03:19:56;;;;;;;11.68;6.70;;;14.30;99.90;;;15.43;100.00;100518.50;5983951;24;20008;-87
2021/09/25 03:22:22;;;;;;;10.52;6.78;;;14.40;99.90;;;15.56;100.00;100522.63;5960241;24;20020;-90
2021/09/25 03:24:48;;;;;;;10.63;6.68;;;14.40;99.90;;;15.47;100.00;100513.69;5960225;24;20084;-90
2021/09/25 03:27:13;;;;;;;12.65;7.35;;;14.40;99.90;;;15.53;100.00;100514.97;5961070;24;20396;-91
2021/09/25 03:29:39;;;;;;;10.88;7.40;;;14.50;99.90;;;15.56;100.00;100519.81;5960871;24;20012;-89
2021/09/25 03:32:06;;;;;;;10.80;6.47;;;14.50;99.90;;;15.59;100.00;100521.00;5961776;24;20047;-91
2021/09/25 03:34:32;;;;;;;10.35;6.45;;;14.50;99.90;;;15.53;100.00;100514.16;5961230;24;20451;-90
2021/09/25 03:36:59;;;;;;;13.15;7.70;;;14.50;99.90;;;15.50;100.00;100517.75;5959502;24;20016;-91
2021/09/25 03:39:24;;;;;;;11.70;7.40;;;14.50;99.90;;;15.57;100.00;100512.16;5959940;24;20008;-90
2021/09/25 03:41:50;;;;;;;12.18;7.47;;;14.50;99.90;;;15.60;100.00;100506.56;5960277;24;20085;-90
2021/09/25 03:44:16;;;;;;;12.10;7.10;;;14.50;99.90;;;15.67;100.00;100511.38;5984991;24;20015;-91
2021/09/25 03:46:42;;;;;;;12.63;7.18;;;14.60;99.90;;;15.61;100.00;100519.41;5960508;24;20019;-90
2021/09/25 03:49:11;;;;;;;12.15;6.57;;;14.60;99.90;;;15.54;100.00;100513.75;5961051;24;20008;-90
2021/09/25 03:51:37;;;;;;;12.88;7.57;;;14.50;99.90;;;15.62;100.00;100514.59;5960393;24;20008;-88
2021/09/25 03:54:03;;;;;;;14.07;7.60;;;14.60;99.90;;;15.63;100.00;100513.41;5984899;24;20019;-88
2021/09/25 03:56:29;;;;;;;14.40;7.18;;;14.60;99.90;;;15.60;100.00;100519.81;5960404;24;20008;-91
2021/09/25 03:58:55;;;;;;;12.02;6.97;;;14.60;99.90;;;15.63;100.00;100510.59;5960529;24;20019;-90
2021/09/25 04:01:21;;;;;;;13.32;7.25;;;14.60;99.90;;;15.62;100.00;100508.97;5960867;24;20032;-89
2021/09/25 04:03:47;;;;;;;11.35;7.30;;;14.60;99.90;;;15.66;100.00;100510.59;5959832;24;20031;-90
2021/09/25 04:06:13;;;;;;;12.70;7.10;;;14.60;99.90;;;15.71;100.00;100520.66;5959845;24;20181;-91
2021/09/25 04:08:39;;;;;;;12.02;6.97;;;14.60;99.90;;;15.62;100.00;100512.59;5959797;24;20091;-89
2021/09/25 04:11:05;;;;;;;11.48;7.10;;;14.60;99.90;;;15.68;100.00;100515.81;5960421;24;20016;-90
2021/09/25 04:13:31;;;;;;;11.88;6.47;;;14.60;99.90;;;15.65;100.00;100516.63;5961032;24;20328;-90
2021/09/25 04:15:57;;;;;;;12.45;7.25;;;14.60;99.90;;;15.72;100.00;100513.84;5960314;24;20059;-90
2021/09/25 04:18:22;;;;;;;14.65;7.50;;;14.60;99.90;;;15.67;100.00;100517.81;5968892;24;20004;-91
2021/09/25 04:20:48;;;;;;;10.77;6.68;;;14.60;99.90;;;15.71;100.00;100517.84;5972834;24;20005;-89
2021/09/25 04:23:14;;;;;;;13.65;7.95;;;14.60;99.90;;;15.76;100.00;100526.72;5972069;24;20064;-91
2021/09/25 04:25:40;;;;;;;10.80;6.60;;;14.60;99.90;;;15.82;100.00;100507.44;5961019;24;20027;-89
2021/09/25 04:28:09;;;;;;;11.20;7.32;;;14.70;99.90;;;15.82;100.00;100524.34;5958503;24;20485;-90
2021/09/25 04:30:41;;;;;;;9.45;6.50;;;14.70;99.90;;;15.82;100.00;100522.34;5958388;24;20019;-91
2021/09/25 04:33:10;;;;;;;12.20;6.82;;;14.70;99.90;;;15.83;100.00;100534.38;5982856;24;20089;-89
2021/09/25 04:35:38;;;;;;;9.45;6.40;;;14.70;99.90;;;15.87;100.00;100525.94;5960217;24;20004;-89
2021/09/25 04:38:05;;;;;;;10.15;6.50;;;14.70;99.90;;;15.83;100.00;100532.38;5959504;24;20008;-90
2021/09/25 04:40:32;;;;;;;12.65;6.47;;;14.70;99.90;;;15.89;100.00;100530.00;5958478;24;20156;-91
2021/09/25 04:43:00;;;;;;;8.68;5.55;;;14.80;99.90;;;15.89;100.00;100532.81;5984422;24;20308;-89
2021/09/25 04:45:30;;;;;;;9.85;6.00;;;14.70;99.90;;;15.88;100.00;100534.00;5960109;24;20020;-92
2021/09/25 04:47:56;;;;;;;12.38;6.45;;;14.70;99.90;;;15.90;100.00;100531.59;5960390;24;20350;-89
2021/09/25 04:50:24;;;;;;;9.05;5.90;;;14.70;99.90;;;15.83;100.00;100528.75;5961765;24;20012;-89
2021/09/25 04:52:50;;;;;;;9.88;5.78;;;14.70;99.90;;;15.83;100.00;100523.94;5985953;24;20019;-90
2021/09/25 04:55:16;;;;;;;9.75;5.72;;;14.70;99.90;;;15.86;100.00;100527.16;5961734;24;20008;-90
2021/09/25 04:57:44;;;;;;;8.60;5.47;;;14.70;99.90;;;15.82;100.00;100532.78;5961122;24;20008;-89
2021/09/25 05:00:11;;;;;;;9.70;6.95;;;14.70;99.90;;;15.78;100.00;100529.16;5961265;24;20023;-89
2021/09/25 05:02:37;;;;;;;13.10;6.10;;;14.70;99.90;;;15.81;100.00;100529.16;5961554;24;20016;-89
2021/09/25 05:05:04;;;;;;;9.07;5.28;;;14.70;99.90;;;15.87;100.00;100534.41;5969144;24;20023;-88
2021/09/25 05:07:30;;;;;;;9.27;5.97;;;14.70;99.90;;;15.92;100.00;100539.66;5974216;24;20085;-89
2021/09/25 05:09:56;;;;;;;11.35;6.68;;;14.70;99.90;;;15.91;100.00;100546.50;5987246;24;20008;-88
2021/09/25 05:12:21;;;;;;;9.35;5.88;;;14.70;99.90;;;15.95;100.00;100548.13;5985412;24;20064;-90
2021/09/25 05:14:47;;;;;;;10.48;6.80;;;14.70;99.90;;;15.90;100.00;100548.50;5962882;24;20000;-90
2021/09/25 05:17:13;;;;;;;11.13;6.32;;;14.70;99.90;;;15.79;100.00;100542.84;5966986;24;20015;-88
2021/09/25 05:19:39;;;;;;;10.73;5.70;;;14.70;99.90;;;15.76;100.00;100542.81;5993141;24;20008;-89
2021/09/25 05:22:05;;;;;;;11.05;6.57;;;14.80;99.90;;;15.81;100.00;100542.44;5966655;24;20015;-90
2021/09/25 05:24:31;;;;;;;11.38;6.82;;;14.70;99.90;;;15.89;100.00;100534.81;5964381;24;20016;-88
2021/09/25 05:26:57;;;;;;;13.68;6.72;;;14.80;99.90;;;15.79;100.00;100537.22;5964705;24;20013;-90
2021/09/25 05:29:24;;;;;;;11.05;6.13;;;14.80;99.90;;;15.79;100.00;100537.22;5961962;24;20008;-89
2021/09/25 05:31:50;;;;;;;11.85;6.75;;;14.70;99.90;;;15.85;100.00;100550.91;5961792;24;20009;-88
2021/09/25 05:34:16;;;;;;;11.32;6.13;;;14.80;99.90;;;15.94;100.00;100548.50;5961815;24;20034;-89
2021/09/25 05:36:41;;;;;;;8.65;6.60;;;14.80;99.90;;;15.89;100.00;100546.09;5961308;24;20008;-89
2021/09/25 05:39:07;;;;;;;10.30;6.70;;;14.80;99.90;;;15.94;100.00;100554.16;5986634;24;20064;-93
2021/09/25 05:41:33;;;;;;;11.98;6.47;;;14.80;99.90;;;15.89;100.00;100546.09;5961271;24;20008;-91
2021/09/25 05:43:59;;;;;;;11.35;7.05;;;14.80;99.90;;;15.89;100.00;100555.34;5961577;24;20008;-89
2021/09/25 05:46:25;;;;;;;17.73;8.13;;;14.80;99.90;;;15.96;100.00;100555.34;5960966;24;20087;-90
2021/09/25 05:48:54;;;;;;;12.65;7.57;;;14.80;99.90;;;15.90;100.00;100564.59;5984773;24;20047;-92
2021/09/25 05:51:20;;;;;;;10.45;7.00;;;14.80;99.90;;;15.89;100.00;100558.16;5961371;24;20342;-90
2021/09/25 05:53:47;;;;;;;13.25;7.65;;;14.90;99.90;;;15.89;100.00;100551.72;5962080;24;20347;-91
2021/09/25 05:56:13;;;;;;;12.57;7.63;;;14.90;99.90;;;15.93;100.00;100546.88;5985872;24;20076;-88
2021/09/25 05:58:39;;;;;;;10.32;6.63;;;14.90;99.90;;;16.03;100.00;100546.94;5961932;24;20016;-90
2021/09/25 06:01:05;;;;;;;13.15;7.15;;;14.90;99.90;;;15.95;100.00;100555.78;5963103;24;20047;-89
2021/09/25 06:03:31;;;;;;;10.25;6.63;;;14.90;99.90;;;16.05;100.00;100552.19;5987065;24;20012;-89
2021/09/25 06:05:57;;;;;;;13.25;6.97;;;14.90;99.90;;;16.06;100.00;100557.41;5963420;24;20032;-88
2021/09/25 06:08:23;;;;;;;12.48;7.28;;;15.00;99.90;;;16.16;100.00;100555.81;5962602;24;20375;-90
2021/09/25 06:10:49;;;;;;;12.13;7.80;;;14.90;99.90;;;16.16;100.00;100544.56;5961344;24;20465;-90
2021/09/25 06:13:16;;;;;;;13.65;7.53;;;15.00;99.90;;;16.13;100.00;100563.06;5960978;24;20015;-92
2021/09/25 06:15:44;;;;;;;12.75;7.35;;;15.00;99.90;;;16.14;100.00;100561.06;5961518;24;20008;-89
2021/09/25 06:18:10;;;;;;;13.13;7.45;;;15.00;99.90;;;16.08;100.00;100565.47;5961378;24;20202;-90
2021/09/25 06:20:37;;;;;;;11.95;7.38;;;15.00;99.90;;;16.12;100.00;100561.44;5961694;24;20012;-88
2021/09/25 06:23:04;;;;;;;12.35;7.05;;;15.00;99.90;;;16.19;100.00;100561.47;5961698;24;20023;-88
2021/09/25 06:25:30;;;;;;;11.73;7.70;;;15.00;99.90;;;16.20;100.00;100557.47;5960929;24;20012;-89
2021/09/25 06:27:56;;;;;;;15.45;7.30;;;15.10;99.90;;;16.15;100.00;100560.66;5960379;24;20343;-90
2021/09/25 06:30:22;;;;;;;15.20;7.90;;;15.20;99.90;;;16.20;100.00;100551.81;5984750;24;20077;-91
2021/09/25 06:32:48;;;;;;;11.30;6.97;;;15.10;99.90;;;16.22;100.00;100563.50;5963186;24;20439;-90
2021/09/25 06:35:17;;;;;;;12.68;7.47;;;15.10;99.90;;;16.28;100.00;100564.72;5966220;24;20008;-88
2021/09/25 06:37:43;;;;;;;12.25;7.80;;;15.20;99.90;;;16.32;100.00;100561.91;5964844;24;20009;-89
2021/09/25 06:40:11;;;;;;;10.02;6.90;;;15.20;99.90;;;16.52;100.00;100562.34;5987756;24;20015;-89
2021/09/25 06:42:40;;;;;;;10.27;6.90;;;15.30;99.90;;;16.47;100.00;100562.75;5964215;24;20012;-90
2021/09/25 06:45:07;;;;;;;9.70;6.75;;;15.30;99.90;;;16.65;100.00;100558.78;5964727;24;20015;-89
2021/09/25 06:47:33;;;;;;;13.60;7.57;;;15.30;99.90;;;16.67;100.00;100567.63;5963527;24;20020;-92
2021/09/25 06:50:02;;;;;;;11.48;6.90;;;15.40;99.90;;;16.66;100.00;100560.38;5962004;24;20321;-89
2021/09/25 06:52:29;;;;;;;11.68;7.35;;;15.50;99.90;;;16.77;100.00;100563.22;5962772;24;20451;-88
2021/09/25 06:54:54;;;;;;;14.80;7.47;;;15.50;99.90;;;16.77;99.96;100564.03;5964410;24;20056;-88
2021/09/25 06:57:20;;;;;;;11.50;6.90;;;15.50;99.90;;;16.82;99.90;100560.78;5991133;24;20012;-87
2021/09/25 06:59:48;;;;;;;12.43;6.43;;;15.60;99.90;;;16.96;99.47;100567.63;5963183;24;20012;-87
2021/09/25 07:02:14;;;;;;;10.68;6.57;;;15.70;99.90;;;16.99;98.99;100564.81;5961170;24;20412;-89
2021/09/25 07:04:40;;;;;;;10.23;6.88;;;15.70;99.90;;;16.86;99.72;100569.25;5962554;24;20043;-89
2021/09/25 07:07:07;;;;;;;10.77;6.80;;;15.70;99.90;;;16.91;100.00;100570.88;5964573;24;20041;-91
2021/09/25 07:09:32;;;;;;;12.68;6.85;;;15.70;99.90;;;17.05;99.04;100565.25;5965656;24;20012;-91
2021/09/25 07:11:58;;;;;;;11.13;6.75;;;15.70;99.90;;;16.99;98.92;100567.66;5961033;24;20008;-89
2021/09/25 07:14:24;;;;;;;10.32;7.28;;;15.80;99.90;;;16.92;99.53;100570.47;5960042;24;20012;-90
2021/09/25 07:16:50;;;;;;;10.32;7.10;;;15.80;99.90;;;16.95;99.38;100572.50;5986045;24;20060;-87
2021/09/25 07:19:16;;;;;;;11.10;6.60;;;15.80;99.90;;;17.11;98.92;100569.28;5960919;24;20004;-89
2021/09/25 07:21:42;;;;;;;11.90;6.70;;;15.80;99.90;;;17.03;99.01;100574.09;5962547;24;20027;-89
2021/09/25 07:24:08;;;;;;;12.05;6.78;;;15.90;99.90;;;17.02;98.97;100578.13;5964595;24;20016;-86
2021/09/25 07:26:34;;;;;;;10.77;6.35;;;15.90;99.90;;;17.20;98.30;100573.28;5979152;24;20079;-87
2021/09/25 07:28:59;;;;;;;10.45;6.90;;;15.90;99.90;;;17.29;97.89;100584.97;5978753;24;20156;-87
2021/09/25 07:31:26;;;;;;;9.38;6.38;;;16.00;99.90;;;17.21;97.45;100583.34;5961706;24;20065;-88
2021/09/25 07:33:52;;;;;;;11.05;7.13;;;16.10;99.90;;;17.21;98.66;100585.38;5961238;24;20041;-87
2021/09/25 07:36:17;;;;;;;11.30;6.53;;;16.10;99.90;;;17.27;98.37;100590.19;5983630;24;20148;-89
2021/09/25 07:38:43;;;;;;;10.95;6.32;;;16.10;99.90;;;17.21;98.80;100600.28;5960051;24;20015;-90
2021/09/25 07:41:09;;;;;;;12.75;7.55;;;16.10;99.90;;;17.20;98.83;100600.72;5983693;24;20008;-90
2021/09/25 07:43:36;;;;;;;10.43;6.95;;;16.20;99.90;;;17.19;98.81;100599.91;5960241;24;20023;-89
2021/09/25 07:46:03;;;;;;;13.82;7.35;;;16.10;99.90;;;17.26;98.99;100602.72;5985268;24;20043;-90
2021/09/25 07:48:29;;;;;;;13.57;7.93;;;16.10;99.90;;;17.24;98.50;100593.81;5959502;24;20016;-89
2021/09/25 07:50:55;;;;;;;11.10;7.28;;;16.10;99.90;;;17.23;98.57;100595.06;5959821;24;20050;-91
2021/09/25 07:53:21;;;;;;;13.40;7.85;;;16.20;99.90;;;17.46;97.60;100605.13;5982542;24;20012;-87
2021/09/25 07:55:47;;;;;;;15.48;8.38;;;16.20;99.90;;;17.33;97.70;100605.53;5982824;24;20008;-90
2021/09/25 07:58:13;;;;;;;14.88;8.38;;;16.20;99.90;;;17.60;96.62;100616.41;5987574;23;19992;-86
2021/09/25 08:00:39;;;;;;;11.57;7.80;;;16.30;99.90;;;17.65;96.38;100618.81;6045183;23;20015;-86
2021/09/25 08:03:05;;;;;;;12.15;8.07;;;16.40;99.90;;;17.75;95.87;100620.81;6019136;23;20015;-85
2021/09/25 08:05:31;;;;;;;13.65;8.25;;;16.40;99.90;;;17.72;95.86;100624.47;6044443;23;20472;-87
2021/09/25 08:07:58;;;;;;;14.50;8.57;;;16.40;99.90;;;17.75;96.15;100627.28;6019165;23;20330;-85
2021/09/25 08:10:24;;;;;;;14.55;6.90;;;16.40;99.90;;;17.93;95.49;100627.22;6020094;23;20007;-87
2021/09/25 08:12:50;;;;;;;14.40;7.85;;;16.50;99.90;;;18.05;95.12;100635.25;6019890;23;20334;-87
2021/09/25 08:15:17;;;;;;;14.70;8.35;;;16.60;99.90;;;17.98;95.11;100642.97;6043635;23;20011;-88
2021/09/25 08:17:46;;;;;;;14.93;8.20;;;16.60;99.90;;;18.10;94.47;100632.00;6020534;23;20015;-87
2021/09/25 08:20:16;;;;;;;12.95;7.63;;;16.70;99.90;;;18.08;95.08;100628.75;6018745;23;20015;-88
2021/09/25 08:22:45;;;;;;;12.43;7.85;;;16.70;99.90;;;18.11;95.00;100636.44;6042429;23;20133;-85
2021/09/25 08:25:13;;;;;;;11.07;7.25;;;16.80;99.90;;;18.27;94.74;100635.94;6023669;23;20023;-87
2021/09/25 08:27:41;;;;;;;15.35;8.02;;;16.80;99.90;;;18.38;94.09;100646.00;6044884;23;20067;-86
2021/09/25 08:30:10;;;;;;;17.63;8.55;;;16.90;99.90;;;18.24;93.35;100653.72;6050040;23;20063;-86
2021/09/25 08:32:37;;;;;;;12.93;8.43;;;16.90;99.90;;;18.23;93.42;100646.50;6021780;23;20011;-88
2021/09/25 08:35:07;;;;;;;15.20;8.30;;;16.90;99.90;;;18.15;93.62;100648.53;6048150;23;20041;-87
2021/09/25 08:37:36;;;;;;;14.52;8.05;;;16.90;99.90;;;18.34;93.16;100645.22;6024877;23;20011;-89
2021/09/25 08:40:08;;;;;;;13.18;7.55;;;17.00;99.90;;;18.36;93.22;100650.47;6025113;23;20077;-87
2021/09/25 08:42:34;;;;;;;11.68;7.88;;;17.00;99.90;;;18.37;92.96;100647.22;6022389;23;20007;-86
2021/09/25 08:45:01;;;;;;;13.05;7.82;;;17.10;99.90;;;18.37;92.80;100652.88;6024855;23;20015;-85
2021/09/25 08:47:27;;;;;;;12.20;7.78;;;17.10;99.90;;;18.35;93.13;100657.34;6048821;23;20038;-87
2021/09/25 08:49:53;;;;;;;12.35;7.10;;;17.10;99.90;;;18.58;92.48;100652.00;6029153;23;20035;-85
2021/09/25 08:52:20;;;;;;;12.85;8.20;;;17.10;99.90;;;18.62;92.39;100652.78;6049290;23;20086;-85
2021/09/25 08:54:46;;;;;;;13.82;7.53;;;17.30;99.90;;;18.73;90.70;100652.72;6028650;23;20007;-84
2021/09/25 08:57:12;;;;;;;13.82;8.13;;;17.30;99.90;;;18.69;90.92;100660.41;6048146;23;20075;-86
2021/09/25 08:59:38;;;;;;;12.77;7.10;;;17.30;99.90;;;18.92;90.30;100663.50;6025200;23;20014;-86
2021/09/25 09:02:13;;;;;;;13.15;7.90;;;17.40;99.90;;;18.87;90.85;100661.13;6021792;23;20472;-87
2021/09/25 09:04:51;;;;;;;13.00;7.27;;;17.50;99.90;;;19.05;89.92;100658.97;6020426;23;20004;-85
2021/09/25 09:07:29;;;;;;;13.70;7.32;;;17.60;99.90;;;19.02;90.33;100662.63;6046616;23;20011;-87
2021/09/25 09:09:58;;;;;;;12.82;7.63;;;17.60;99.90;;;19.23;88.77;100668.13;6045103;23;20078;-87
2021/09/25 09:12:28;;;;;;;11.73;7.25;;;17.70;99.90;;;19.20;88.75;100668.19;6049568;23;20011;-87
2021/09/25 09:14:56;;;;;;;12.13;7.30;;;17.80;99.90;;;19.22;88.74;100672.19;6051736;23;20046;-89
2021/09/25 09:17:32;;;;;;;13.63;7.70;;;17.80;99.90;;;19.27;88.77;100673.75;6019438;23;20514;-89
2021/09/25 09:20:11;;;;;;;13.88;8.25;;;17.90;99.90;;;19.32;88.64;100670.50;6020199;23;20047;-88
2021/09/25 09:22:37;;;;;;;14.82;7.22;;;17.90;99.90;;;19.41;86.81;100663.16;6020110;23;20071;-88
2021/09/25 09:25:07;;;;;;;14.75;7.57;;;18.00;99.90;;;19.59;86.79;100673.50;6044812;23;20349;-88
2021/09/25 09:27:33;;;;;;;10.23;6.40;;;18.10;99.90;;;19.70;86.00;100672.22;6019761;23;20023;-86
2021/09/25 09:30:14;;;;;;;11.23;6.53;;;18.30;99.90;;;19.91;84.38;100682.50;6020428;23;20022;-86
2021/09/25 09:32:45;;;;;;;9.95;6.28;;;18.40;99.90;;;19.86;84.63;100682.97;6021715;23;20170;-87
2021/09/25 09:35:20;;;;;;;14.32;7.10;;;18.40;99.90;;;19.93;84.20;100677.25;6020720;23;20021;-86
2021/09/25 09:37:53;;;;;;;11.20;6.65;;;18.40;99.90;;;19.79;83.46;100666.84;6022596;23;20095;-85
2021/09/25 09:40:20;;;;;;;9.73;6.32;;;18.50;99.90;;;20.01;83.28;100670.25;6056058;23;20011;-86
2021/09/25 09:42:49;;;;;;;14.30;6.60;;;18.60;99.90;;;20.13;82.84;100671.75;6052261;23;20015;-85
2021/09/25 09:45:31;;;;;;;10.93;5.88;;;18.60;99.90;;;20.31;82.88;100672.38;6022429;23;20034;-86
2021/09/25 09:48:00;;;;;;;8.10;5.35;;;18.70;99.90;;;20.40;80.84;100679.13;6042769;23;20335;-85
2021/09/25 09:50:29;;;;;;;7.22;4.70;;;18.80;99.90;;;20.38;80.11;100675.13;6047591;23;20007;-85
2021/09/25 09:53:10;;;;;;;6.22;4.50;;;18.80;99.90;;;20.46;80.74;100682.31;6047842;23;20007;-85
2021/09/25 09:55:36;;;;;;;7.68;4.80;;;18.90;99.90;;;20.46;79.40;100690.81;6043134;23;20007;-87
2021/09/25 09:58:05;;;;;;;9.85;5.72;;;18.90;99.90;;;20.52;81.05;100687.09;6043068;23;20033;-84
2021/09/25 10:00:37;;;;;;;8.52;4.78;;;19.00;99.90;;;20.57;79.28;100685.81;6019657;23;20098;-86
2021/09/25 10:03:05;;;;;;;8.88;4.22;;;19.00;99.90;;;20.61;78.91;100682.94;6049411;23;20025;-85
2021/09/25 10:05:32;;;;;;;7.93;4.82;;;19.00;99.90;;;20.52;77.22;100689.91;6021550;23;20015;-87
2021/09/25 10:07:59;;;;;;;7.68;4.43;;;19.00;99.90;;;20.61;77.42;100688.63;6042537;23;20011;-87